createdAt,value
2022-08-23T00:01:21.301Z,20.78
2022-08-23T00:06:34.077Z,20.72
2022-08-23T00:11:26.485Z,20.75
2022-08-23T00:16:26.420Z,20.70
2022-08-23T00:21:26.320Z,20.63
2022-08-23T00:26:26.270Z,20.51
2022-08-23T00:31:26.205Z,20.40
2022-08-23T00:36:26.143Z,20.37
2022-08-23T00:41:26.080Z,20.28
2022-08-23T00:46:26.006Z,20.24
2022-08-23T00:51:25.955Z,20.13
2022-08-23T00:56:25.901Z,19.95
2022-08-23T01:01:25.851Z,19.81
2022-08-23T01:06:25.746Z,19.71
2022-08-23T01:11:25.693Z,19.74
2022-08-23T01:16:25.605Z,19.66
2022-08-23T01:21:25.677Z,19.59
2022-08-23T01:26:25.508Z,19.49
2022-08-23T01:31:25.409Z,19.37
2022-08-23T01:36:25.327Z,19.31
2022-08-23T01:41:25.733Z,19.24
2022-08-23T01:46:25.203Z,19.21
2022-08-23T01:51:25.276Z,19.16
2022-08-23T01:56:38.122Z,19.08
2022-08-23T02:01:26.091Z,19.08
2022-08-23T02:06:24.969Z,19.00
2022-08-23T02:11:24.888Z,18.93
2022-08-23T02:16:24.876Z,18.83
2022-08-23T02:21:24.868Z,18.78
2022-08-23T02:26:31.208Z,18.77
2022-08-23T02:31:25.599Z,18.71
2022-08-23T02:36:25.485Z,18.68
2022-08-23T02:41:24.591Z,18.63
2022-08-23T02:46:24.415Z,18.52
2022-08-23T02:51:24.429Z,18.50
2022-08-23T02:56:24.292Z,18.43
2022-08-23T03:01:24.180Z,18.33
2022-08-23T03:06:26.073Z,18.29
2022-08-23T03:11:24.167Z,18.23
2022-08-23T03:16:23.998Z,18.20
2022-08-23T03:21:23.936Z,18.16
2022-08-23T03:26:23.867Z,18.04
2022-08-23T03:31:23.769Z,17.94
2022-08-23T03:36:27.883Z,17.94
2022-08-23T03:41:23.703Z,17.87
2022-08-23T03:46:23.605Z,17.85
2022-08-23T03:51:23.553Z,17.82
2022-08-23T03:56:23.492Z,17.76
2022-08-23T04:01:28.548Z,17.64
2022-08-23T04:06:24.383Z,17.54
2022-08-23T04:11:23.288Z,17.42
2022-08-23T04:16:55.826Z,17.24
2022-08-23T04:21:48.052Z,17.34
2022-08-23T04:26:49.451Z,17.36
2022-08-23T04:31:48.968Z,17.30
2022-08-23T04:36:52.539Z,17.24
2022-08-23T04:41:48.821Z,17.24
2022-08-23T04:46:48.119Z,17.20
2022-08-23T04:51:53.782Z,17.11
2022-08-23T04:56:51.729Z,17.14
2022-08-23T05:01:47.620Z,17.24
2022-08-23T05:06:47.501Z,17.29
2022-08-23T05:11:47.468Z,17.31
2022-08-23T05:16:47.351Z,17.26
2022-08-23T05:21:47.290Z,17.34
2022-08-23T05:26:47.216Z,17.42
2022-08-23T05:31:47.120Z,17.45
2022-08-23T05:36:47.396Z,17.49
2022-08-23T05:41:48.014Z,17.56
2022-08-23T05:46:46.944Z,17.71
2022-08-23T05:51:46.970Z,17.95
2022-08-23T05:56:46.792Z,18.18
2022-08-23T06:01:46.756Z,18.34
2022-08-23T06:06:46.661Z,18.45
2022-08-23T06:11:46.658Z,18.60
2022-08-23T06:16:46.651Z,18.73
2022-08-23T06:21:46.546Z,18.83
2022-08-23T06:26:46.436Z,18.95
2022-08-23T06:31:46.359Z,19.27
2022-08-23T06:36:46.327Z,20.00
2022-08-23T06:41:46.213Z,20.97
2022-08-23T06:46:46.198Z,22.26
2022-08-23T06:51:46.122Z,23.73
2022-08-23T06:56:46.032Z,24.80
2022-08-23T07:01:46.941Z,25.98
2022-08-23T07:06:45.860Z,26.71
2022-08-23T07:11:45.813Z,27.42
2022-08-23T07:16:45.743Z,28.15
2022-08-23T07:21:48.667Z,29.29
2022-08-23T07:26:45.640Z,29.84
2022-08-23T07:31:45.663Z,30.51
2022-08-23T07:36:45.470Z,30.47
2022-08-23T07:41:45.503Z,30.57
2022-08-23T07:46:45.406Z,30.96
2022-08-23T07:51:45.315Z,31.96
2022-08-23T07:56:45.314Z,32.83
2022-08-23T08:01:45.294Z,32.95
2022-08-23T08:06:45.096Z,33.57
2022-08-23T08:11:45.053Z,33.47
2022-08-23T08:16:45.849Z,33.59
2022-08-23T08:21:44.928Z,34.51
2022-08-23T08:26:44.873Z,34.95
2022-08-23T08:31:44.833Z,35.29
2022-08-23T08:36:44.745Z,35.74
2022-08-23T08:41:44.751Z,36.23
2022-08-23T08:46:44.727Z,35.79
2022-08-23T08:51:44.591Z,36.49
2022-08-23T08:56:44.594Z,36.24
2022-08-23T09:01:44.485Z,36.09
2022-08-23T09:06:44.364Z,37.29
2022-08-23T09:11:44.296Z,37.11
2022-08-23T09:16:44.340Z,37.84
2022-08-23T09:21:44.214Z,38.19
2022-08-23T09:26:44.111Z,38.77
2022-08-23T09:31:44.112Z,38.99
2022-08-23T09:36:44.106Z,39.15
2022-08-23T09:41:43.948Z,38.68
2022-08-23T09:46:43.885Z,38.74
2022-08-23T09:51:43.785Z,38.92
2022-08-23T09:56:43.736Z,39.58
2022-08-23T10:01:43.752Z,39.80
2022-08-23T10:06:43.614Z,39.80
2022-08-23T10:11:43.567Z,39.30
2022-08-23T10:16:43.488Z,39.53
2022-08-23T10:21:43.419Z,40.02
2022-08-23T10:26:43.388Z,40.23
2022-08-23T10:31:43.320Z,40.61
2022-08-23T10:36:43.236Z,40.75
2022-08-23T10:41:43.203Z,41.00
2022-08-23T10:46:43.181Z,40.49
2022-08-23T10:51:43.053Z,40.14
2022-08-23T10:56:48.816Z,40.20
2022-08-23T11:01:43.992Z,40.63
2022-08-23T11:06:42.864Z,40.73
2022-08-23T11:11:42.817Z,39.65
2022-08-23T11:16:42.811Z,40.44
2022-08-23T11:21:42.730Z,40.38
2022-08-23T11:26:42.681Z,39.99
2022-08-23T11:31:42.612Z,39.94
2022-08-23T11:36:42.529Z,40.14
2022-08-23T11:41:42.471Z,39.17
2022-08-23T11:46:42.438Z,39.43
2022-08-23T11:51:42.363Z,39.86
2022-08-23T11:56:46.205Z,40.26
2022-08-23T12:01:42.239Z,40.53
2022-08-23T12:06:42.160Z,40.06
2022-08-23T12:11:42.118Z,39.38
2022-08-23T12:16:45.149Z,38.36
2022-08-23T12:21:43.002Z,38.24
2022-08-23T12:26:41.910Z,37.94
2022-08-23T12:31:42.903Z,38.27
2022-08-23T12:36:41.778Z,38.30
2022-08-23T12:41:41.772Z,38.61
2022-08-23T12:46:41.749Z,37.44
2022-08-23T12:51:41.628Z,37.07
2022-08-23T12:56:41.553Z,36.98
2022-08-23T13:01:41.536Z,36.47
2022-08-23T13:06:42.314Z,36.37
2022-08-23T13:11:41.385Z,35.83
2022-08-23T13:16:41.397Z,35.51
2022-08-23T13:21:41.250Z,35.89
2022-08-23T13:26:41.183Z,35.46
2022-08-23T13:31:41.122Z,34.92
2022-08-23T13:36:41.087Z,33.47
2022-08-23T13:41:41.037Z,32.68
2022-08-23T13:46:40.944Z,32.49
2022-08-23T13:51:40.865Z,32.36
2022-08-23T13:56:40.810Z,32.83
2022-08-23T14:01:40.818Z,32.95
2022-08-23T14:06:40.740Z,32.63
2022-08-23T14:11:40.596Z,33.14
2022-08-23T14:16:40.805Z,33.90
2022-08-23T14:21:40.528Z,33.65
2022-08-23T14:26:50.358Z,33.46
2022-08-23T14:31:41.383Z,33.15
2022-08-23T14:36:40.382Z,32.97
2022-08-23T14:41:40.221Z,32.59
2022-08-23T14:46:40.162Z,32.63
2022-08-23T14:51:43.192Z,32.67
2022-08-23T14:56:40.025Z,32.52
2022-08-23T15:01:39.966Z,32.38
2022-08-23T15:06:50.275Z,32.26
2022-08-23T15:16:40.801Z,32.12
2022-08-23T15:21:39.729Z,32.19
2022-08-23T15:26:39.768Z,32.46
2022-08-23T15:31:39.579Z,32.67
2022-08-23T15:36:39.602Z,32.74
2022-08-23T15:41:39.535Z,32.75
2022-08-23T15:46:39.458Z,32.55
2022-08-23T15:51:39.387Z,32.89
2022-08-23T15:56:39.234Z,32.56
2022-08-23T16:01:39.418Z,32.26
2022-08-23T16:06:39.121Z,32.07
2022-08-23T16:11:39.070Z,31.80
2022-08-23T16:16:39.074Z,31.78
2022-08-23T16:21:38.960Z,31.97
2022-08-23T16:26:38.876Z,31.70
2022-08-23T16:31:39.575Z,31.54
2022-08-23T16:36:38.738Z,31.36
2022-08-23T16:41:38.711Z,31.31
2022-08-23T16:46:39.244Z,30.94
2022-08-23T16:51:39.226Z,30.85
2022-08-23T16:56:38.494Z,31.12
2022-08-23T17:01:38.478Z,31.27
2022-08-23T17:06:38.484Z,31.03
2022-08-23T17:12:02.543Z,30.72
2022-08-23T17:16:38.220Z,30.51
2022-08-23T17:21:38.171Z,30.43
2022-08-23T17:26:38.108Z,30.34
2022-08-23T17:31:38.143Z,30.19
2022-08-23T17:36:37.998Z,30.00
2022-08-23T17:41:40.068Z,29.71
2022-08-23T17:46:38.863Z,29.36
2022-08-23T17:51:37.750Z,28.97
2022-08-23T17:56:38.017Z,28.59
2022-08-23T18:01:37.653Z,28.19
2022-08-23T18:06:37.585Z,27.92
2022-08-23T18:11:37.534Z,27.70
2022-08-23T18:16:37.500Z,27.45
2022-08-23T18:21:37.390Z,27.14
2022-08-23T18:26:37.300Z,26.97
2022-08-23T18:31:37.303Z,26.85
2022-08-23T18:36:37.177Z,26.75
2022-08-23T18:41:37.085Z,26.63
2022-08-23T18:46:37.137Z,26.51
2022-08-23T18:51:37.078Z,26.52
2022-08-23T18:56:37.000Z,26.51
2022-08-23T19:01:36.938Z,26.41
2022-08-23T19:06:36.818Z,26.28
2022-08-23T19:11:36.695Z,26.21
2022-08-23T19:16:36.766Z,26.10
2022-08-23T19:21:36.579Z,26.02
2022-08-23T19:26:36.533Z,25.99
2022-08-23T19:31:41.172Z,25.73
2022-08-23T19:36:46.659Z,25.51
2022-08-23T19:41:38.009Z,25.54
2022-08-23T19:46:36.293Z,25.72
2022-08-23T19:51:36.222Z,25.78
2022-08-23T19:56:36.152Z,25.68
2022-08-23T20:01:36.145Z,25.59
2022-08-23T20:06:36.062Z,25.51
2022-08-23T20:11:35.960Z,25.35
2022-08-23T20:16:36.013Z,25.28
2022-08-23T20:21:35.818Z,25.13
2022-08-23T20:26:35.727Z,24.89
2022-08-23T20:31:35.750Z,24.65
2022-08-23T20:36:35.622Z,24.40
2022-08-23T20:41:35.541Z,24.30
2022-08-23T20:46:35.538Z,24.33
2022-08-23T20:51:36.837Z,24.42
2022-08-23T20:56:35.339Z,24.40
2022-08-23T21:01:35.313Z,24.33
2022-08-23T21:06:35.206Z,24.29
2022-08-23T21:11:35.146Z,24.30
2022-08-23T21:16:35.196Z,24.08
2022-08-23T21:21:35.026Z,23.86
2022-08-23T21:26:34.950Z,23.50
2022-08-23T21:31:34.957Z,23.27
2022-08-23T21:36:34.825Z,23.20
2022-08-23T21:41:34.751Z,23.18
2022-08-23T21:46:34.793Z,23.23
2022-08-23T21:51:34.976Z,23.27
2022-08-23T21:56:34.552Z,23.25
2022-08-23T22:01:34.545Z,23.15
2022-08-23T22:06:34.417Z,23.03
2022-08-23T22:11:34.368Z,22.91
2022-08-23T22:16:34.278Z,22.78
2022-08-23T22:21:35.682Z,22.65
2022-08-23T22:26:34.165Z,22.59
2022-08-23T22:31:34.181Z,22.54
2022-08-23T22:36:34.027Z,22.50
2022-08-23T22:41:33.977Z,22.44
2022-08-23T22:46:33.987Z,22.38
2022-08-23T22:51:33.827Z,22.33
2022-08-23T22:56:33.818Z,22.18
2022-08-23T23:01:34.131Z,21.96
2022-08-23T23:06:33.681Z,21.88
2022-08-23T23:11:34.871Z,21.89
2022-08-23T23:16:33.595Z,21.88
2022-08-23T23:21:33.452Z,21.89
2022-08-23T23:26:33.381Z,21.89
2022-08-23T23:31:33.302Z,21.88
2022-08-23T23:36:33.241Z,21.80
2022-08-23T23:41:33.173Z,21.85
2022-08-23T23:46:33.891Z,21.76
2022-08-23T23:51:33.049Z,21.69
2022-08-23T23:56:32.991Z,21.61
